createdAt,value
2023-05-20T00:00:00.858Z,95076.78
2023-05-20T00:00:57.705Z,95108.59
2023-05-20T00:01:54.528Z,95153.75
2023-05-20T00:02:51.458Z,95153.28
2023-05-20T00:03:48.561Z,95147.19
2023-05-20T00:04:45.651Z,95000.59
2023-05-20T00:05:43.256Z,95088.53
2023-05-20T00:06:40.304Z,95031.13
2023-05-20T00:07:37.045Z,95130.16
2023-05-20T00:08:33.873Z,94994.00
2023-05-20T00:09:30.640Z,95107.34
2023-05-20T00:10:27.689Z,95135.13
2023-05-20T00:11:24.766Z,95105.81
2023-05-20T00:12:21.789Z,95145.19
2023-05-20T00:13:18.647Z,95120.22
2023-05-20T00:14:15.533Z,95092.94
2023-05-20T00:15:12.549Z,95082.09
2023-05-20T00:16:09.520Z,95064.25
2023-05-20T00:17:06.413Z,94990.00
2023-05-20T00:18:04.298Z,95007.56
2023-05-20T00:19:01.312Z,94968.31
2023-05-20T00:20:00.176Z,94999.44
2023-05-20T00:20:56.954Z,94965.81
2023-05-20T00:21:53.731Z,95021.22
2023-05-20T00:22:50.793Z,95076.56
2023-05-20T00:23:47.598Z,94889.56
2023-05-20T00:24:44.322Z,94887.63
2023-05-20T00:25:41.053Z,95017.34
2023-05-20T00:26:37.810Z,94996.28
2023-05-20T00:27:34.606Z,95084.09
2023-05-20T00:28:31.351Z,95096.50
2023-05-20T00:29:28.810Z,95003.56
2023-05-20T00:30:26.545Z,95129.19
2023-05-20T00:31:23.514Z,95113.41
2023-05-20T00:32:20.386Z,94995.78
2023-05-20T00:33:17.267Z,95118.13
2023-05-20T00:34:14.145Z,95014.88
2023-05-20T00:35:11.671Z,95129.84
2023-05-20T00:36:08.978Z,94991.59
2023-05-20T00:37:06.239Z,94960.03
2023-05-20T00:38:03.029Z,94997.56
2023-05-20T00:38:59.988Z,94981.88
2023-05-20T00:39:56.914Z,95094.88
2023-05-20T00:40:53.731Z,95070.69
2023-05-20T00:41:50.666Z,94990.34
2023-05-20T00:42:47.459Z,95117.06
2023-05-20T00:43:44.281Z,95132.75
2023-05-20T00:44:41.202Z,95076.47
2023-05-20T00:45:38.870Z,95033.34
2023-05-20T00:46:36.925Z,95121.50
2023-05-20T00:47:36.839Z,95130.13
2023-05-20T00:48:41.743Z,95109.06
2023-05-20T00:49:39.427Z,95041.63
2023-05-20T00:51:51.620Z,94994.56
2023-05-20T00:52:51.662Z,94969.66
2023-05-20T00:53:50.560Z,94991.50
2023-05-20T00:54:47.840Z,95084.25
2023-05-20T00:55:45.652Z,95104.91
2023-05-20T00:56:43.244Z,95100.81
2023-05-20T00:57:40.335Z,94980.13
2023-05-20T00:58:38.064Z,94992.31
2023-05-20T00:59:36.818Z,95118.63
2023-05-20T01:00:33.599Z,94973.84
2023-05-20T01:01:30.551Z,95055.03
2023-05-20T01:02:27.524Z,94890.59
2023-05-20T01:03:24.797Z,95008.06
2023-05-20T01:04:21.721Z,95077.06
2023-05-20T01:05:18.612Z,94985.41
2023-05-20T01:06:15.430Z,95060.53
2023-05-20T01:07:15.241Z,94967.31
2023-05-20T01:08:12.347Z,95065.53
2023-05-20T01:09:09.118Z,95057.03
2023-05-20T01:10:07.356Z,95123.44
2023-05-20T01:11:09.269Z,94986.75
2023-05-20T01:12:18.221Z,94991.94
2023-05-20T01:13:20.918Z,95146.19
2023-05-20T01:14:21.594Z,95133.03
2023-05-20T01:15:22.484Z,95013.66
2023-05-20T01:16:24.610Z,94903.03
2023-05-20T01:17:26.984Z,94987.28
2023-05-20T01:18:30.233Z,95000.34
2023-05-20T01:19:42.304Z,95136.22
2023-05-20T01:20:39.621Z,94893.16
2023-05-20T01:21:38.469Z,95083.47
2023-05-20T01:22:47.113Z,95090.97
2023-05-20T01:23:44.514Z,95127.31
2023-05-20T01:24:43.072Z,95118.91
2023-05-20T01:25:39.783Z,95113.22
2023-05-20T01:26:38.442Z,95111.16
2023-05-20T01:27:35.875Z,95141.91
2023-05-20T01:28:34.133Z,95091.88
2023-05-20T01:29:32.820Z,95001.16
2023-05-20T01:30:36.078Z,95110.09
2023-05-20T01:31:37.448Z,95013.22
2023-05-20T01:32:39.123Z,95073.88
2023-05-20T01:33:39.624Z,95102.41
2023-05-20T01:34:39.350Z,95011.19
2023-05-20T01:35:36.992Z,94988.16
2023-05-20T01:36:34.441Z,95120.84
2023-05-20T01:37:32.586Z,95013.22
2023-05-20T01:38:31.039Z,95005.22
2023-05-20T01:39:29.908Z,95125.13
2023-05-20T01:40:28.546Z,94992.38
2023-05-20T01:41:27.532Z,94986.59
2023-05-20T01:42:28.083Z,94867.97
2023-05-20T01:43:26.936Z,95122.25
2023-05-20T01:44:24.017Z,95097.47
2023-05-20T01:45:21.501Z,95074.09
2023-05-20T01:46:18.544Z,95122.00
2023-05-20T01:47:15.373Z,95097.50
2023-05-20T01:48:13.015Z,95033.28
2023-05-20T01:49:09.813Z,95121.09
2023-05-20T01:50:07.296Z,95132.50
2023-05-20T01:51:06.891Z,95114.06
2023-05-20T01:52:04.530Z,94970.56
2023-05-20T01:53:01.448Z,95111.16
2023-05-20T01:53:58.341Z,95065.66
2023-05-20T01:54:55.208Z,94984.53
2023-05-20T01:55:52.075Z,94996.13
2023-05-20T01:56:50.367Z,94979.00
2023-05-20T01:57:47.442Z,95126.97
2023-05-20T01:58:44.415Z,95086.88
2023-05-20T01:59:41.492Z,95007.03
2023-05-20T02:00:38.427Z,94994.22
2023-05-20T02:01:35.328Z,95099.28
2023-05-20T02:02:32.215Z,95115.50
2023-05-20T02:03:29.067Z,95097.81
2023-05-20T02:04:25.922Z,94971.63
2023-05-20T02:05:22.774Z,95079.56
2023-05-20T02:06:19.752Z,95016.56
2023-05-20T02:07:21.357Z,94976.88
2023-05-20T02:08:18.102Z,95105.16
2023-05-20T02:09:14.908Z,95091.00
2023-05-20T02:10:11.767Z,95120.91
2023-05-20T02:11:08.815Z,95120.13
2023-05-20T02:12:06.190Z,95123.59
2023-05-20T02:13:02.987Z,95041.34
2023-05-20T02:13:59.821Z,95078.53
2023-05-20T02:14:56.683Z,95108.03
2023-05-20T02:15:53.663Z,94965.88
2023-05-20T02:16:50.672Z,94987.75
2023-05-20T02:17:47.607Z,95125.31
2023-05-20T02:18:44.552Z,94999.91
2023-05-20T02:19:41.343Z,94983.72
2023-05-20T02:20:38.640Z,95090.44
2023-05-20T02:21:35.920Z,94936.19
2023-05-20T02:22:32.782Z,95129.47
2023-05-20T02:23:30.299Z,95008.00
2023-05-20T02:24:27.071Z,95011.41
2023-05-20T02:25:23.807Z,95096.53
2023-05-20T02:26:20.847Z,94847.50
2023-05-20T02:27:17.686Z,94948.19
2023-05-20T02:28:16.286Z,95120.38
2023-05-20T02:29:13.090Z,95094.78
2023-05-20T02:30:10.618Z,95000.63
2023-05-20T02:31:07.419Z,95001.81
2023-05-20T02:32:04.483Z,94965.19
2023-05-20T02:33:01.819Z,95037.22
2023-05-20T02:33:58.739Z,95120.53
2023-05-20T02:34:55.786Z,95114.22
2023-05-20T02:35:52.585Z,94841.66
2023-05-20T02:36:49.408Z,95104.84
2023-05-20T02:37:46.476Z,95002.75
2023-05-20T02:38:43.571Z,95117.56
2023-05-20T02:39:40.430Z,94962.41
2023-05-20T02:40:37.262Z,94870.63
2023-05-20T02:41:34.137Z,95046.59
2023-05-20T02:42:30.988Z,95113.34
2023-05-20T02:43:27.728Z,95094.81
2023-05-20T02:44:24.537Z,95086.53
2023-05-20T02:45:21.441Z,95118.63
2023-05-20T02:46:19.796Z,95053.25
2023-05-20T02:47:16.688Z,95119.88
2023-05-20T02:48:13.524Z,95129.66
2023-05-20T02:49:10.370Z,95098.72
2023-05-20T02:50:07.987Z,94991.75
2023-05-20T02:51:05.899Z,94951.53
2023-05-20T02:52:02.855Z,95121.25
2023-05-20T02:52:59.631Z,94989.69
2023-05-20T02:53:56.765Z,95124.28
2023-05-20T02:54:53.504Z,94981.03
2023-05-20T02:55:50.614Z,95070.91
2023-05-20T02:56:47.343Z,94961.84
2023-05-20T02:57:44.139Z,95129.66
2023-05-20T02:58:41.698Z,94961.13
2023-05-20T02:59:38.482Z,95120.69
2023-05-20T03:00:40.911Z,94976.94
2023-05-20T03:01:38.049Z,94987.41
2023-05-20T03:02:35.098Z,95096.09
2023-05-20T03:03:31.993Z,95078.88
2023-05-20T03:04:28.755Z,95073.19
2023-05-20T03:05:27.545Z,95118.78
2023-05-20T03:06:24.476Z,95075.69
2023-05-20T03:07:22.507Z,95142.97
2023-05-20T03:08:22.338Z,95128.84
2023-05-20T03:09:19.677Z,95137.66
2023-05-20T03:10:16.534Z,95000.84
2023-05-20T03:11:13.344Z,95036.28
2023-05-20T03:12:10.064Z,95146.53
2023-05-20T03:13:11.700Z,94969.78
2023-05-20T03:14:08.549Z,94992.09
2023-05-20T03:15:05.995Z,94981.91
2023-05-20T03:16:03.163Z,94988.78
2023-05-20T03:17:00.181Z,94887.31
2023-05-20T03:17:56.999Z,95005.97
2023-05-20T03:18:54.725Z,95018.63
2023-05-20T03:19:51.529Z,95030.50
2023-05-20T03:20:48.305Z,95003.75
2023-05-20T03:21:46.730Z,95097.44
2023-05-20T03:22:43.501Z,95136.28
2023-05-20T03:23:40.250Z,95139.75
2023-05-20T03:24:37.142Z,95020.41
2023-05-20T03:25:34.528Z,95144.53
2023-05-20T03:26:33.892Z,95133.72
2023-05-20T03:27:31.195Z,95141.84
2023-05-20T03:28:28.033Z,95145.97
2023-05-20T03:29:24.756Z,95039.81
2023-05-20T03:30:21.822Z,94974.25
2023-05-20T03:31:19.370Z,94994.00
2023-05-20T03:32:16.824Z,95098.66
2023-05-20T03:33:14.607Z,95106.31
2023-05-20T03:34:11.406Z,94965.50
2023-05-20T03:35:09.076Z,95039.63
2023-05-20T03:36:06.686Z,95130.59
2023-05-20T03:37:06.245Z,95036.50
2023-05-20T03:38:03.105Z,95149.97
2023-05-20T03:38:59.937Z,95023.66
2023-05-20T03:39:56.722Z,95110.88
2023-05-20T03:40:53.503Z,95100.59
2023-05-20T03:41:50.238Z,95008.16
2023-05-20T03:42:47.384Z,95164.41
2023-05-20T03:43:44.290Z,95147.84
2023-05-20T03:44:41.208Z,95113.09
2023-05-20T03:45:38.079Z,95106.72
2023-05-20T03:46:34.890Z,95054.44
2023-05-20T03:47:31.968Z,95126.06
2023-05-20T03:48:28.972Z,95130.78
2023-05-20T03:49:25.930Z,95158.03
2023-05-20T03:50:22.729Z,95039.81
2023-05-20T03:51:19.586Z,95009.84
2023-05-20T03:52:16.345Z,95171.38
2023-05-20T03:53:13.092Z,95129.56
2023-05-20T03:54:09.894Z,95020.50
2023-05-20T03:55:07.047Z,95043.66
2023-05-20T03:56:03.980Z,95160.38
2023-05-20T03:57:03.099Z,95151.84
2023-05-20T03:58:01.265Z,95168.00
2023-05-20T03:58:58.379Z,95107.00
2023-05-20T03:59:55.131Z,95166.31
2023-05-20T04:00:52.069Z,95162.22
2023-05-20T04:01:49.022Z,95032.47
2023-05-20T04:02:45.946Z,95109.66
2023-05-20T04:03:43.722Z,95049.69
2023-05-20T04:04:43.214Z,95053.25
2023-05-20T04:05:40.065Z,95178.03
2023-05-20T04:06:36.909Z,95149.84
2023-05-20T04:07:33.766Z,95028.41
2023-05-20T04:08:30.646Z,95167.44
2023-05-20T04:09:27.839Z,95064.56
2023-05-20T04:10:24.910Z,95181.13
2023-05-20T04:11:21.750Z,95174.22
2023-05-20T04:12:19.485Z,95182.28
2023-05-20T04:13:16.505Z,95055.44
2023-05-20T04:14:13.375Z,95140.59
2023-05-20T04:15:10.758Z,95059.94
2023-05-20T04:16:07.740Z,95016.47
2023-05-20T04:17:05.967Z,95073.66
2023-05-20T04:18:03.146Z,95126.25
2023-05-20T04:19:01.037Z,94954.59
2023-05-20T04:19:59.952Z,95145.78
2023-05-20T04:20:56.916Z,95035.09
2023-05-20T04:21:54.157Z,95048.34
2023-05-20T04:22:51.106Z,95174.47
2023-05-20T04:23:47.870Z,95152.34
2023-05-20T04:24:46.108Z,95163.47
2023-05-20T04:25:44.815Z,95036.25
2023-05-20T04:26:41.712Z,95137.53
2023-05-20T04:27:39.812Z,95057.41
2023-05-20T04:28:37.771Z,95141.53
2023-05-20T04:29:34.565Z,95149.94
2023-05-20T04:30:33.533Z,95022.47
2023-05-20T04:31:31.901Z,95070.88
2023-05-20T04:32:28.984Z,94910.28
2023-05-20T04:33:26.852Z,95094.50
2023-05-20T04:34:26.994Z,95081.31
2023-05-20T04:35:26.171Z,95123.94
2023-05-20T04:36:28.862Z,95111.28
2023-05-20T04:37:26.289Z,95119.78
2023-05-20T04:38:23.415Z,95019.94
2023-05-20T04:39:20.785Z,95099.88
2023-05-20T04:40:17.555Z,95125.31
2023-05-20T04:41:16.070Z,95144.84
2023-05-20T04:42:13.556Z,94915.81
2023-05-20T04:43:11.177Z,95021.88
2023-05-20T04:44:08.418Z,95045.22
2023-05-20T04:45:06.104Z,95042.31
2023-05-20T04:46:06.216Z,95053.06
2023-05-20T04:47:07.998Z,95154.47
2023-05-20T04:48:06.224Z,95072.06
2023-05-20T04:49:04.603Z,95156.97
2023-05-20T04:50:01.479Z,94994.38
2023-05-20T04:50:58.416Z,95093.66
2023-05-20T04:51:55.658Z,95046.63
2023-05-20T04:52:52.483Z,95032.97
2023-05-20T04:53:50.947Z,95120.34
2023-05-20T04:54:48.408Z,95120.19
2023-05-20T04:55:49.725Z,95115.72
2023-05-20T04:56:47.046Z,95138.44
2023-05-20T04:57:43.915Z,95150.81
2023-05-20T04:58:40.726Z,95101.63
2023-05-20T04:59:37.463Z,95005.81
2023-05-20T05:00:34.454Z,95112.47
2023-05-20T05:01:31.279Z,95129.94
2023-05-20T05:02:28.178Z,94982.13
2023-05-20T05:03:25.018Z,95031.91
2023-05-20T05:04:22.847Z,95126.69
2023-05-20T05:05:19.761Z,95129.44
2023-05-20T05:06:16.629Z,95125.81
2023-05-20T05:07:13.410Z,95006.31
2023-05-20T05:08:11.655Z,95101.19
2023-05-20T05:09:08.579Z,94913.38
2023-05-20T05:10:05.820Z,95140.47
2023-05-20T05:11:05.827Z,95098.50
2023-05-20T05:12:02.926Z,95067.78
2023-05-20T05:12:59.912Z,95111.09
2023-05-20T05:13:57.157Z,95129.91
2023-05-20T05:14:53.945Z,95124.06
2023-05-20T05:15:59.526Z,95038.53
2023-05-20T05:16:56.425Z,94950.31
2023-05-20T05:17:53.584Z,95108.69
2023-05-20T05:18:50.515Z,94981.19
2023-05-20T05:19:47.350Z,95005.06
2023-05-20T05:20:44.218Z,95089.03
2023-05-20T05:21:41.012Z,95001.91
2023-05-20T05:22:39.758Z,95120.41
2023-05-20T05:23:36.924Z,94997.91
2023-05-20T05:24:33.820Z,95086.56
2023-05-20T05:25:30.860Z,95093.91
2023-05-20T05:26:27.649Z,95086.06
2023-05-20T05:27:24.428Z,95008.41
2023-05-20T05:28:22.093Z,95092.72
2023-05-20T05:29:18.978Z,95090.72
2023-05-20T05:30:16.437Z,95028.03
2023-05-20T05:31:13.396Z,95113.22
2023-05-20T05:32:10.248Z,95093.41
2023-05-20T05:33:07.226Z,94987.81
2023-05-20T05:34:04.136Z,94969.06
2023-05-20T05:35:00.971Z,94977.78
2023-05-20T05:36:01.900Z,95026.06
2023-05-20T05:36:58.668Z,95033.16
2023-05-20T05:37:55.439Z,94974.25
2023-05-20T05:38:52.379Z,95063.25
2023-05-20T05:39:49.655Z,94980.59
2023-05-20T05:40:46.422Z,95082.56
2023-05-20T05:41:43.160Z,94993.78
2023-05-20T05:42:39.976Z,94873.34
2023-05-20T05:43:36.792Z,95052.56
2023-05-20T05:44:33.692Z,95099.72
2023-05-20T05:45:30.790Z,94990.53
2023-05-20T05:46:27.779Z,94958.75
2023-05-20T05:47:29.734Z,94974.53
2023-05-20T05:48:26.539Z,95051.06
2023-05-20T05:49:23.370Z,95076.78
2023-05-20T05:50:20.173Z,95085.66
2023-05-20T05:51:17.791Z,95072.66
2023-05-20T05:52:14.570Z,94994.47
2023-05-20T05:53:11.489Z,95102.75
2023-05-20T05:54:08.236Z,95073.75
2023-05-20T05:55:05.829Z,94918.25
2023-05-20T05:56:02.677Z,95082.31
2023-05-20T05:56:59.507Z,94975.44
2023-05-20T05:57:56.313Z,95033.19
2023-05-20T05:58:53.079Z,94951.91
2023-05-20T05:59:49.986Z,95031.44
2023-05-20T06:00:46.742Z,95050.91
2023-05-20T06:01:43.760Z,95026.41
2023-05-20T06:02:41.230Z,94982.28
2023-05-20T06:03:38.365Z,95079.81
2023-05-20T06:04:35.200Z,94980.63
2023-05-20T06:05:32.751Z,94959.09
2023-05-20T06:06:31.472Z,95083.56
2023-05-20T06:07:28.262Z,95083.78
2023-05-20T06:08:24.993Z,95026.72
2023-05-20T06:09:21.729Z,95080.31
2023-05-20T06:10:19.250Z,95062.16
2023-05-20T06:11:16.363Z,95001.44
2023-05-20T06:12:14.119Z,95074.41
2023-05-20T06:13:11.212Z,95068.06
2023-05-20T06:14:08.028Z,95043.47
2023-05-20T06:15:05.110Z,94730.31
2023-05-20T06:16:01.984Z,94820.59
2023-05-20T06:16:58.839Z,94837.03
2023-05-20T06:17:55.775Z,94956.97
2023-05-20T06:18:53.324Z,94946.78
2023-05-20T06:19:50.076Z,95056.84
2023-05-20T06:20:46.932Z,95017.81
2023-05-20T06:21:43.708Z,95071.75
2023-05-20T06:22:40.812Z,94971.03
2023-05-20T06:23:37.823Z,95043.47
2023-05-20T06:24:34.769Z,94976.47
2023-05-20T06:25:31.699Z,95027.97
2023-05-20T06:26:28.722Z,94945.78
2023-05-20T06:27:25.656Z,94763.31
2023-05-20T06:28:22.474Z,95060.56
2023-05-20T06:29:19.636Z,94974.56
2023-05-20T06:30:16.597Z,95056.59
2023-05-20T06:31:13.426Z,95045.59
2023-05-20T06:32:10.360Z,95029.06
2023-05-20T06:33:08.054Z,94997.50
2023-05-20T06:34:05.211Z,95054.41
2023-05-20T06:35:02.346Z,94943.03
2023-05-20T06:36:01.723Z,95052.81
2023-05-20T06:36:59.326Z,95030.38
2023-05-20T06:37:56.224Z,94942.56
2023-05-20T06:38:53.192Z,95029.03
2023-05-20T06:39:53.854Z,95038.59
2023-05-20T06:40:51.527Z,94934.47
2023-05-20T06:41:48.429Z,94978.75
2023-05-20T06:42:45.230Z,95028.44
2023-05-20T06:43:42.038Z,95023.84
2023-05-20T06:44:38.797Z,94904.53
2023-05-20T06:45:35.834Z,94922.63
2023-05-20T06:46:33.342Z,94954.88
2023-05-20T06:47:30.298Z,94999.56
2023-05-20T06:48:27.116Z,94957.38
2023-05-20T06:49:24.901Z,95015.81
2023-05-20T06:50:21.812Z,94882.34
2023-05-20T06:51:18.634Z,94975.88
2023-05-20T06:52:15.423Z,94934.56
2023-05-20T06:53:12.399Z,94897.88
2023-05-20T06:54:09.200Z,95025.06
2023-05-20T06:55:06.721Z,94926.94
2023-05-20T06:56:03.633Z,94970.22
2023-05-20T06:57:00.398Z,95006.94
2023-05-20T06:57:57.205Z,95005.31
2023-05-20T06:58:55.391Z,94919.94
2023-05-20T06:59:52.166Z,95012.69
2023-05-20T07:00:48.940Z,95022.66
2023-05-20T07:01:45.860Z,94929.88
2023-05-20T07:02:43.534Z,95032.00
2023-05-20T07:03:40.474Z,94921.84
2023-05-20T07:04:37.434Z,94829.41
2023-05-20T07:05:34.402Z,94986.84
2023-05-20T07:06:31.605Z,95021.75
2023-05-20T07:07:28.426Z,94895.19
2023-05-20T07:08:25.483Z,94925.47
2023-05-20T07:09:22.469Z,95023.88
2023-05-20T07:10:19.255Z,95008.44
2023-05-20T07:11:16.216Z,95023.06
2023-05-20T07:12:13.078Z,94902.31
2023-05-20T07:13:09.842Z,94936.28
2023-05-20T07:14:07.802Z,95020.34
2023-05-20T07:15:05.005Z,94970.41
2023-05-20T07:16:01.912Z,95023.25
2023-05-20T07:16:58.755Z,94909.94
2023-05-20T07:17:55.856Z,94812.31
2023-05-20T07:18:52.727Z,94932.59
2023-05-20T07:19:51.177Z,95017.94
2023-05-20T07:20:47.943Z,94971.97
2023-05-20T07:21:44.774Z,94846.97
2023-05-20T07:22:41.670Z,95019.06
2023-05-20T07:23:38.460Z,94886.69
2023-05-20T07:24:38.277Z,95010.88
2023-05-20T07:25:35.355Z,94982.44
2023-05-20T07:26:33.819Z,94890.59
2023-05-20T07:27:30.575Z,95005.94
2023-05-20T07:28:27.347Z,95010.44
2023-05-20T07:29:24.283Z,94884.50
2023-05-20T07:30:21.019Z,95004.88
2023-05-20T07:31:17.975Z,94888.38
2023-05-20T07:32:15.801Z,94941.72
2023-05-20T07:33:12.938Z,94984.69
2023-05-20T07:34:09.824Z,94993.91
2023-05-20T07:35:06.915Z,94898.75
2023-05-20T07:36:03.842Z,95002.53
2023-05-20T07:37:01.393Z,95008.94
2023-05-20T07:37:58.158Z,94994.19
2023-05-20T07:39:03.210Z,94994.16
2023-05-20T07:40:02.330Z,94920.63
2023-05-20T07:40:59.203Z,94890.03
2023-05-20T07:41:55.964Z,95008.78
2023-05-20T07:42:52.690Z,94898.53
2023-05-20T07:43:50.108Z,94882.25
2023-05-20T07:44:46.983Z,95008.22
2023-05-20T07:45:43.714Z,94912.97
2023-05-20T07:46:42.045Z,94998.53
2023-05-20T07:47:38.919Z,94860.91
2023-05-20T07:48:35.816Z,94941.94
2023-05-20T07:49:32.762Z,94899.56
2023-05-20T07:50:29.903Z,94892.00
2023-05-20T07:51:26.787Z,94881.94
2023-05-20T07:52:23.576Z,94930.88
2023-05-20T07:53:20.412Z,95002.44
2023-05-20T07:54:17.256Z,95007.47
2023-05-20T07:55:14.030Z,94724.97
2023-05-20T07:56:11.079Z,94886.06
2023-05-20T07:57:07.944Z,94990.53
2023-05-20T07:58:04.938Z,94954.75
2023-05-20T07:59:03.360Z,94954.31
2023-05-20T08:00:00.244Z,94982.59
2023-05-20T08:00:57.198Z,94996.69
2023-05-20T08:01:54.443Z,94854.03
2023-05-20T08:02:51.415Z,94981.84
2023-05-20T08:03:48.321Z,94863.97
2023-05-20T08:04:45.375Z,94975.13
2023-05-20T08:05:42.346Z,95009.31
2023-05-20T08:06:39.935Z,94940.84
2023-05-20T08:07:36.695Z,94896.91
2023-05-20T08:08:33.535Z,94809.16
2023-05-20T08:09:31.902Z,94997.34
2023-05-20T08:10:28.802Z,95003.84
2023-05-20T08:11:25.600Z,94983.19
2023-05-20T08:12:22.458Z,94959.09
2023-05-20T08:13:19.222Z,94893.84
2023-05-20T08:14:18.361Z,94885.75
2023-05-20T08:15:15.501Z,94994.00
2023-05-20T08:16:12.385Z,94870.25
2023-05-20T08:17:09.183Z,94866.81
2023-05-20T08:18:06.045Z,94884.00
2023-05-20T08:19:03.548Z,94957.16
2023-05-20T08:20:00.830Z,94858.53
2023-05-20T08:20:57.839Z,94951.34
2023-05-20T08:22:51.404Z,94861.41
2023-05-20T08:23:48.334Z,94962.63
2023-05-20T08:24:45.152Z,94983.16
2023-05-20T08:25:42.056Z,94976.56
2023-05-20T08:26:38.873Z,94972.22
2023-05-20T08:27:39.119Z,94958.75
2023-05-20T08:28:38.110Z,94993.75
2023-05-20T08:29:34.880Z,94995.81
2023-05-20T08:30:31.730Z,94992.34
2023-05-20T08:31:28.666Z,94945.84
2023-05-20T08:32:26.355Z,94728.31
2023-05-20T08:33:23.534Z,94898.97
2023-05-20T08:34:20.331Z,94986.63
2023-05-20T08:35:17.070Z,94972.19
2023-05-20T08:36:13.958Z,94967.59
2023-05-20T08:37:11.085Z,94973.91
2023-05-20T08:38:07.926Z,94889.09
2023-05-20T08:39:04.733Z,94927.53
2023-05-20T08:40:01.802Z,95004.06
2023-05-20T08:40:58.554Z,94846.63
2023-05-20T08:41:55.620Z,94976.84
2023-05-20T08:42:53.055Z,94879.91
2023-05-20T08:43:52.124Z,94874.59
2023-05-20T08:44:52.846Z,94969.47
2023-05-20T08:45:52.661Z,94974.81
2023-05-20T08:46:51.381Z,94800.78
2023-05-20T08:47:48.566Z,94942.31
2023-05-20T08:48:45.965Z,94969.63
2023-05-20T08:49:43.006Z,94966.41
2023-05-20T08:50:40.215Z,94891.63
2023-05-20T08:51:39.278Z,94889.13
2023-05-20T08:52:38.692Z,94926.31
2023-05-20T08:53:35.508Z,94985.94
2023-05-20T08:54:58.824Z,94988.69
2023-05-20T08:56:01.348Z,94988.78
2023-05-20T08:57:00.553Z,94981.66
2023-05-20T08:57:58.200Z,94782.59
2023-05-20T08:58:55.283Z,94949.69
2023-05-20T08:59:52.371Z,94987.00
2023-05-20T09:00:49.579Z,94723.94
2023-05-20T09:01:46.639Z,94981.16
2023-05-20T09:02:46.945Z,94862.94
2023-05-20T09:03:44.597Z,94964.66
2023-05-20T09:04:41.533Z,94897.78
2023-05-20T09:05:38.398Z,94981.47
2023-05-20T09:06:47.945Z,94877.00
2023-05-20T09:07:45.677Z,94959.75
2023-05-20T09:08:43.061Z,94979.22
2023-05-20T09:09:40.549Z,94860.69
2023-05-20T09:10:39.710Z,94953.16
2023-05-20T09:11:36.690Z,94896.69
2023-05-20T09:12:33.519Z,94957.34
2023-05-20T09:13:32.815Z,94928.94
2023-05-20T09:14:32.958Z,94960.63
2023-05-20T09:15:30.820Z,94867.34
2023-05-20T09:16:27.690Z,94846.41
2023-05-20T09:17:24.766Z,94968.19
2023-05-20T09:18:21.633Z,94896.09
2023-05-20T09:19:21.866Z,94930.13
2023-05-20T09:20:25.946Z,94874.44
2023-05-20T09:21:27.411Z,94811.72
2023-05-20T09:22:29.002Z,94816.81
2023-05-20T09:23:26.045Z,94942.53
2023-05-20T09:24:27.183Z,94809.53
2023-05-20T09:25:24.521Z,94833.88
2023-05-20T09:26:22.222Z,94867.06
2023-05-20T09:27:22.737Z,94942.44
2023-05-20T09:28:20.924Z,94904.06
2023-05-20T09:29:17.936Z,94909.66
2023-05-20T09:30:14.765Z,94893.97
2023-05-20T09:31:14.908Z,94821.44
2023-05-20T09:32:11.947Z,94847.84
2023-05-20T09:33:09.386Z,94961.53
2023-05-20T09:34:06.854Z,94858.94
2023-05-20T09:35:04.460Z,94956.59
2023-05-20T09:36:22.755Z,94796.25
2023-05-20T09:37:22.203Z,94917.84
2023-05-20T09:38:21.409Z,94904.03
2023-05-20T09:39:30.775Z,94953.00
2023-05-20T09:40:29.393Z,94930.69
2023-05-20T09:41:36.700Z,94954.41
2023-05-20T09:42:55.090Z,94820.16
2023-05-20T09:43:53.756Z,94957.94
2023-05-20T09:44:54.293Z,94912.28
2023-05-20T09:45:55.413Z,94946.78
2023-05-20T09:46:53.750Z,94868.47
2023-05-20T09:47:52.969Z,94778.03
2023-05-20T09:48:50.514Z,94945.00
2023-05-20T09:49:47.554Z,94622.63
2023-05-20T09:50:45.459Z,94813.66
2023-05-20T09:51:44.586Z,94908.72
2023-05-20T09:52:44.149Z,94941.63
2023-05-20T09:53:42.047Z,94889.81
2023-05-20T09:54:39.437Z,94805.03
2023-05-20T09:55:37.840Z,94867.47
2023-05-20T09:56:36.902Z,94940.53
2023-05-20T09:57:38.021Z,94933.25
2023-05-20T09:58:37.053Z,94896.38
2023-05-20T09:59:37.762Z,94795.59
2023-05-20T10:00:34.737Z,94693.56
2023-05-20T10:01:32.090Z,94874.56
2023-05-20T10:02:29.787Z,94942.88
2023-05-20T10:03:28.338Z,94926.97
2023-05-20T10:04:28.712Z,94927.22
2023-05-20T10:05:36.826Z,94808.38
2023-05-20T10:06:52.187Z,94934.38
2023-05-20T10:08:04.326Z,94935.88
2023-05-20T10:09:57.584Z,94930.78
2023-05-20T10:11:00.140Z,94932.59
2023-05-20T10:12:34.352Z,94929.81
2023-05-20T10:13:41.101Z,94904.28
2023-05-20T10:15:18.270Z,94917.94
2023-05-20T10:16:17.870Z,94920.16
2023-05-20T10:17:24.410Z,94880.69
2023-05-20T10:18:23.931Z,94917.84
2023-05-20T10:19:33.340Z,94901.91
2023-05-20T10:20:30.624Z,94844.31
2023-05-20T10:21:27.534Z,94893.88
2023-05-20T10:22:29.623Z,94717.75
2023-05-20T10:23:31.332Z,94805.88
2023-05-20T10:24:43.142Z,94777.38
2023-05-20T10:25:51.835Z,94873.63
2023-05-20T10:26:56.294Z,94673.19
2023-05-20T10:28:03.826Z,94776.47
2023-05-20T10:29:00.771Z,94762.34
2023-05-20T10:29:58.192Z,94852.75
2023-05-20T10:30:55.241Z,94572.28
2023-05-20T10:31:53.565Z,94802.31
2023-05-20T10:32:57.666Z,94809.06
2023-05-20T10:33:54.880Z,94898.56
2023-05-20T10:34:51.900Z,94734.34
2023-05-20T10:35:52.345Z,94872.94
2023-05-20T10:36:54.991Z,94890.56
2023-05-20T10:37:53.674Z,94789.34
2023-05-20T10:39:00.171Z,94769.25
2023-05-20T10:40:16.500Z,94836.75
2023-05-20T10:41:13.365Z,94668.13
2023-05-20T10:42:11.276Z,94779.69
2023-05-20T10:43:12.539Z,94749.50
2023-05-20T10:44:09.518Z,94867.28
2023-05-20T10:45:08.202Z,94736.28
2023-05-20T10:46:07.461Z,94747.09
2023-05-20T10:47:24.356Z,94642.59
2023-05-20T10:48:31.876Z,94884.91
2023-05-20T10:49:35.144Z,94826.28
2023-05-20T10:50:37.523Z,94766.34
2023-05-20T10:51:36.697Z,94775.06
2023-05-20T10:52:36.610Z,94823.19
2023-05-20T10:53:41.689Z,94545.56
2023-05-20T10:54:57.949Z,94839.91
2023-05-20T10:55:55.184Z,94816.13
2023-05-20T10:56:54.160Z,94757.00
2023-05-20T10:57:51.655Z,94847.41
2023-05-20T10:58:49.227Z,94836.94
2023-05-20T10:59:47.522Z,94833.28
2023-05-20T11:00:44.758Z,94751.03
2023-05-20T11:01:43.459Z,94733.34
2023-05-20T11:02:41.455Z,94852.88
2023-05-20T11:03:40.471Z,94779.38
2023-05-20T11:04:37.993Z,94718.63
2023-05-20T11:05:35.428Z,94824.00
2023-05-20T11:06:33.828Z,94732.41
2023-05-20T11:07:32.544Z,94744.84
2023-05-20T11:08:33.876Z,94773.50
2023-05-20T11:09:32.071Z,94814.19
2023-05-20T11:10:29.122Z,94824.91
2023-05-20T11:11:26.579Z,94789.63
2023-05-20T11:12:27.936Z,94754.66
2023-05-20T11:13:25.692Z,94850.69
2023-05-20T11:14:23.236Z,94830.84
2023-05-20T11:15:20.083Z,94810.03
2023-05-20T11:16:16.883Z,94699.06
2023-05-20T11:17:13.765Z,94851.22
2023-05-20T11:18:12.593Z,94697.84
2023-05-20T11:19:33.817Z,94841.91
2023-05-20T11:20:35.273Z,94838.28
2023-05-20T11:21:32.535Z,94809.81
2023-05-20T11:22:29.546Z,94852.50
2023-05-20T11:23:28.072Z,94718.69
2023-05-20T11:24:29.242Z,94612.06
2023-05-20T11:25:26.036Z,94728.66
2023-05-20T11:26:23.356Z,94684.34
2023-05-20T11:27:20.220Z,94742.13